createdAt,value
2024-05-09T00:01:29.940Z,63.93
2024-05-09T00:05:32.075Z,63.86
2024-05-09T00:09:34.046Z,63.88
2024-05-09T00:13:35.720Z,64.66
2024-05-09T00:17:37.711Z,64.63
2024-05-09T00:21:45.236Z,64.80
2024-05-09T00:25:47.161Z,64.71
2024-05-09T00:29:49.125Z,66.32
2024-05-09T00:33:51.177Z,67.13
2024-05-09T00:37:53.264Z,65.84
2024-05-09T00:41:55.048Z,65.09
2024-05-09T00:45:57.660Z,65.08
2024-05-09T00:49:59.837Z,63.97
2024-05-09T00:54:02.408Z,65.30
2024-05-09T00:58:05.858Z,66.13
2024-05-09T01:02:08.014Z,66.86
2024-05-09T01:06:09.791Z,67.59
2024-05-09T01:10:17.249Z,67.75
2024-05-09T01:14:23.209Z,68.49
2024-05-09T01:18:25.689Z,68.19
2024-05-09T01:22:29.530Z,67.47
2024-05-09T01:26:31.269Z,67.20
2024-05-09T01:30:35.947Z,66.73
2024-05-09T01:34:39.317Z,66.45
2024-05-09T01:38:41.188Z,66.65
2024-05-09T01:42:42.978Z,65.37
2024-05-09T01:50:54.520Z,66.76
2024-05-09T01:54:56.542Z,66.96
2024-05-09T01:58:58.586Z,66.61
2024-05-09T02:03:00.906Z,65.50
2024-05-09T02:07:02.966Z,65.61
2024-05-09T02:11:05.082Z,66.05
2024-05-09T02:15:07.078Z,66.09
2024-05-09T02:19:09.104Z,66.02
2024-05-09T02:23:11.547Z,66.42
2024-05-09T02:27:13.831Z,65.95
2024-05-09T02:31:15.753Z,66.53
2024-05-09T02:35:19.146Z,66.38
2024-05-09T02:39:24.233Z,65.68
2024-05-09T02:43:26.292Z,65.52
2024-05-09T02:51:44.899Z,65.56
2024-05-09T02:55:46.672Z,67.55
2024-05-09T02:59:48.617Z,66.71
2024-05-09T03:03:51.796Z,66.85
2024-05-09T03:07:53.789Z,67.07
2024-05-09T03:11:55.626Z,66.48
2024-05-09T03:16:00.163Z,66.68
2024-05-09T03:20:05.160Z,66.08
2024-05-09T03:24:07.882Z,66.42
2024-05-09T03:28:09.979Z,65.95
2024-05-09T03:32:11.882Z,66.52
2024-05-09T03:36:13.971Z,66.93
2024-05-09T03:40:20.900Z,66.47
2024-05-09T03:44:26.084Z,66.34
2024-05-09T03:48:28.613Z,66.26
2024-05-09T03:52:30.356Z,66.14
2024-05-09T03:56:32.374Z,65.99
2024-05-09T04:00:38.531Z,68.14
2024-05-09T04:04:42.472Z,67.43
2024-05-09T04:08:44.457Z,67.79
2024-05-09T04:12:46.170Z,67.81
2024-05-09T04:16:48.112Z,67.21
2024-05-09T04:20:50.090Z,67.37
2024-05-09T04:24:53.043Z,67.55
2024-05-09T04:28:54.926Z,67.87
2024-05-09T04:32:56.722Z,65.26
2024-05-09T04:36:58.561Z,63.38
2024-05-09T04:41:00.450Z,62.98
2024-05-09T04:45:02.292Z,63.17
2024-05-09T04:49:04.143Z,60.40
2024-05-09T04:53:10.668Z,60.61
2024-05-09T04:57:13.294Z,62.08
2024-05-09T05:01:16.376Z,59.92
2024-05-09T05:05:18.386Z,61.17
2024-05-09T05:09:20.097Z,61.49
2024-05-09T05:13:24.163Z,61.33
2024-05-09T05:17:26.703Z,60.87
2024-05-09T05:21:28.750Z,60.66
2024-05-09T05:25:30.599Z,61.00
2024-05-09T05:29:32.651Z,61.40
2024-05-09T05:33:34.523Z,60.99
2024-05-09T05:37:36.526Z,61.85
2024-05-09T05:41:38.458Z,60.78
2024-05-09T05:45:40.238Z,60.52
2024-05-09T05:49:42.124Z,60.82
2024-05-09T05:53:44.983Z,62.01
2024-05-09T05:57:47.021Z,62.25
2024-05-09T06:01:48.906Z,62.09
2024-05-09T06:05:50.730Z,62.63
2024-05-09T06:09:52.656Z,60.99
2024-05-09T06:13:54.500Z,61.03
2024-05-09T06:17:56.526Z,60.52
2024-05-09T06:22:02.004Z,60.66
2024-05-09T06:26:04.816Z,59.69
2024-05-09T06:30:09.953Z,59.39
2024-05-09T06:34:14.300Z,59.15
2024-05-09T06:38:16.170Z,57.72
2024-05-09T06:42:18.152Z,53.39
2024-05-09T06:46:19.839Z,56.01
2024-05-09T06:50:24.405Z,54.66
2024-05-09T06:54:30.351Z,52.86
2024-05-09T06:58:32.143Z,52.21
2024-05-09T07:02:34.177Z,51.78
2024-05-09T07:06:35.973Z,49.94
2024-05-09T07:10:38.507Z,49.13
2024-05-09T07:19:44.516Z,47.56
2024-05-09T07:23:47.425Z,46.37
2024-05-09T07:27:49.312Z,44.46
2024-05-09T07:31:51.488Z,44.31
2024-05-09T07:35:53.346Z,42.94
2024-05-09T07:39:55.220Z,42.76
2024-05-09T07:43:57.187Z,41.35
2024-05-09T07:53:27.107Z,39.31
2024-05-09T07:56:26.245Z,39.01
2024-05-09T08:00:31.512Z,38.77
2024-05-09T08:04:34.063Z,38.15
2024-05-09T08:08:36.111Z,37.35
2024-05-09T08:12:38.100Z,39.89
2024-05-09T08:16:43.059Z,38.15
2024-05-09T08:20:48.574Z,39.69
2024-05-09T08:24:50.887Z,38.20
2024-05-09T08:28:52.916Z,38.66
2024-05-09T08:32:54.831Z,35.07
2024-05-09T08:36:59.657Z,34.39
2024-05-09T08:41:04.340Z,35.94
2024-05-09T08:45:06.507Z,36.06
2024-05-09T08:49:08.824Z,35.93
2024-05-09T08:53:10.831Z,42.00
2024-05-09T08:57:13.764Z,36.15
2024-05-09T09:01:17.815Z,34.11
2024-05-09T09:05:24.536Z,32.50
2024-05-09T09:09:27.565Z,34.22
2024-05-09T09:13:29.321Z,31.76
2024-05-09T09:17:31.374Z,32.82
2024-05-09T09:21:33.261Z,33.19
2024-05-09T09:25:35.335Z,32.55
2024-05-09T09:29:39.665Z,31.92
2024-05-09T09:34:28.078Z,33.26
2024-05-09T09:38:31.958Z,33.37
2024-05-09T09:42:37.547Z,30.24
2024-05-09T09:46:40.730Z,30.08
2024-05-09T09:50:43.469Z,30.29
2024-05-09T09:54:46.074Z,28.64
2024-05-09T09:58:48.642Z,27.64
2024-05-09T10:02:50.434Z,31.18
2024-05-09T10:06:56.972Z,28.58
2024-05-09T10:10:58.850Z,27.97
2024-05-09T10:15:08.055Z,28.15
2024-05-09T10:19:21.534Z,29.20
2024-05-09T10:23:26.684Z,29.61
2024-05-09T10:27:30.276Z,28.10
2024-05-09T10:31:32.603Z,30.16
2024-05-09T10:35:34.608Z,29.75
2024-05-09T10:39:39.919Z,27.23
2024-05-09T10:43:42.218Z,27.01
2024-05-09T10:47:44.130Z,28.00
2024-05-09T10:51:48.608Z,26.66
2024-05-09T10:56:00.822Z,27.64
2024-05-09T11:00:03.113Z,26.52
2024-05-09T11:04:05.844Z,27.74
2024-05-09T11:08:09.212Z,26.01
2024-05-09T11:12:11.434Z,27.85
2024-05-09T11:16:17.533Z,30.62
2024-05-09T11:20:26.806Z,29.18
2024-05-09T11:24:35.694Z,28.74
2024-05-09T11:28:37.884Z,28.40
2024-05-09T11:32:39.828Z,28.83
2024-05-09T11:36:41.771Z,28.35
2024-05-09T11:40:43.615Z,26.63
2024-05-09T11:44:45.381Z,28.84
2024-05-09T11:48:47.370Z,27.62
2024-05-09T11:52:49.408Z,28.71
2024-05-09T11:56:51.926Z,30.76
2024-05-09T12:00:53.718Z,28.01
2024-05-09T12:04:55.797Z,30.54
2024-05-09T12:08:57.855Z,24.77
2024-05-09T12:12:59.607Z,27.05
2024-05-09T12:17:04.012Z,26.60
2024-05-09T12:21:06.204Z,26.74
2024-05-09T12:25:08.534Z,25.72
2024-05-09T12:29:11.799Z,28.85
2024-05-09T12:33:14.510Z,26.80
2024-05-09T12:37:16.790Z,28.72
2024-05-09T12:41:18.649Z,30.91
2024-05-09T12:45:23.310Z,27.29
2024-05-09T12:49:25.406Z,26.86
2024-05-09T12:53:27.376Z,30.61
2024-05-09T12:57:29.286Z,29.03
2024-05-09T13:01:31.261Z,27.38
2024-05-09T13:05:33.785Z,25.95
2024-05-09T13:09:37.025Z,26.33
2024-05-09T13:13:39.570Z,28.91
2024-05-09T13:17:42.529Z,27.08
2024-05-09T13:21:46.006Z,27.00
2024-05-09T13:40:12.025Z,28.50
2024-05-09T13:44:16.342Z,29.58
2024-05-09T13:48:18.574Z,26.60
2024-05-09T13:52:20.929Z,31.11
2024-05-09T13:56:23.268Z,28.36
2024-05-09T14:09:47.639Z,31.16
2024-05-09T14:13:49.386Z,29.30
2024-05-09T14:17:51.333Z,30.65
2024-05-09T14:21:53.360Z,29.34
2024-05-09T14:25:55.528Z,31.00
2024-05-09T14:29:57.486Z,28.07
2024-05-09T14:33:59.606Z,29.14
2024-05-09T14:38:01.695Z,32.29
2024-05-09T14:42:03.747Z,31.20
2024-05-09T14:46:05.930Z,31.69
2024-05-09T14:55:29.783Z,32.72
2024-05-09T14:59:31.582Z,32.33
2024-05-09T15:04:17.363Z,30.96
2024-05-09T15:08:34.565Z,31.95
2024-05-09T15:12:36.557Z,31.96
2024-05-09T15:16:38.760Z,30.35
2024-05-09T15:21:08.588Z,31.37
2024-05-09T15:25:10.424Z,29.21
2024-05-09T15:29:12.819Z,28.87
2024-05-09T15:33:14.737Z,31.56
2024-05-09T15:37:16.668Z,30.47
2024-05-09T15:41:37.119Z,30.88
2024-05-09T15:45:40.415Z,33.80
2024-05-09T15:49:43.442Z,31.45
2024-05-09T15:53:45.313Z,31.13
2024-05-09T15:57:47.252Z,33.25
2024-05-09T16:06:10.855Z,30.24
2024-05-09T16:10:19.956Z,33.97
2024-05-09T16:14:25.330Z,32.45
2024-05-09T16:18:27.108Z,31.89
2024-05-09T16:22:28.880Z,31.95
2024-05-09T16:26:30.852Z,31.40
2024-05-09T16:30:35.438Z,35.04
2024-05-09T16:34:38.382Z,35.87
2024-05-09T16:38:41.708Z,34.73
2024-05-09T16:42:43.672Z,34.26
2024-05-09T16:46:45.623Z,35.23
2024-05-09T16:50:47.687Z,37.00
2024-05-09T16:54:49.503Z,36.42
2024-05-09T16:58:51.764Z,37.90
2024-05-09T17:02:54.813Z,39.31
2024-05-09T17:06:57.032Z,39.28
2024-05-09T17:10:59.199Z,39.95
2024-05-09T17:15:01.150Z,38.65
2024-05-09T17:19:03.084Z,39.10
2024-05-09T17:23:13.787Z,38.37
2024-05-09T17:27:16.314Z,41.10
2024-05-09T17:31:18.405Z,42.02
2024-05-09T17:40:42.783Z,43.32
2024-05-09T17:44:44.902Z,44.24
2024-05-09T17:48:47.003Z,44.67
2024-05-09T17:52:51.618Z,46.65
2024-05-09T17:56:53.370Z,48.12
2024-05-09T18:00:58.192Z,47.41
2024-05-09T18:05:02.052Z,48.33
2024-05-09T18:09:04.038Z,46.36
2024-05-09T18:13:06.419Z,46.57
2024-05-09T18:17:08.806Z,45.84
2024-05-09T18:21:10.821Z,44.91
2024-05-09T18:25:12.858Z,45.56
2024-05-09T18:29:16.152Z,45.25
2024-05-09T18:33:19.453Z,45.59
2024-05-09T18:37:21.768Z,46.44
2024-05-09T18:41:23.774Z,49.43
2024-05-09T18:45:25.675Z,46.68
2024-05-09T18:49:28.055Z,47.25
2024-05-09T18:53:30.180Z,47.23
2024-05-09T18:57:34.246Z,47.44
2024-05-09T19:01:40.999Z,49.28
2024-05-09T19:05:45.053Z,50.09
2024-05-09T19:09:48.174Z,49.47
2024-05-09T19:13:50.170Z,48.63
2024-05-09T19:17:52.116Z,48.42
2024-05-09T19:21:55.472Z,48.45
2024-05-09T19:25:57.467Z,47.50
2024-05-09T19:30:00.318Z,49.60
2024-05-09T19:34:02.409Z,48.48
2024-05-09T19:38:05.633Z,48.18
2024-05-09T19:42:07.778Z,49.56
2024-05-09T19:46:10.386Z,49.29
2024-05-09T19:50:19.495Z,48.97
2024-05-09T19:54:24.854Z,50.33
2024-05-09T19:58:26.809Z,50.00
2024-05-09T20:02:29.060Z,49.53
2024-05-09T20:06:31.296Z,50.57
2024-05-09T20:10:35.449Z,50.84
2024-05-09T20:14:41.207Z,49.41
2024-05-09T20:18:43.240Z,50.35
2024-05-09T20:22:45.359Z,50.62
2024-05-09T20:26:47.300Z,49.61
2024-05-09T20:30:49.183Z,49.74
2024-05-09T20:34:52.465Z,50.72
2024-05-09T20:38:54.298Z,51.26
2024-05-09T20:42:56.413Z,52.19
2024-05-09T20:46:58.256Z,51.58
2024-05-09T20:51:00.279Z,51.75
2024-05-09T20:55:02.431Z,52.13
2024-05-09T20:59:04.335Z,53.43
2024-05-09T21:03:07.226Z,53.06
2024-05-09T21:07:09.451Z,52.86
2024-05-09T21:11:11.308Z,53.72
2024-05-09T21:15:13.296Z,53.85
2024-05-09T21:19:15.129Z,54.01
2024-05-09T21:23:16.833Z,53.85
2024-05-09T21:27:19.274Z,54.82
2024-05-09T21:31:21.567Z,53.91
2024-05-09T21:35:23.442Z,54.95
2024-05-09T21:39:25.204Z,55.75
2024-05-09T21:43:28.865Z,56.54
2024-05-09T21:47:31.001Z,57.96
2024-05-09T21:51:33.147Z,57.57
2024-05-09T21:55:35.043Z,57.40
2024-05-09T21:59:40.408Z,57.21
2024-05-09T22:03:42.260Z,57.51
2024-05-09T22:07:44.119Z,58.13
2024-05-09T22:11:47.438Z,58.47
2024-05-09T22:15:59.185Z,56.72
2024-05-09T22:20:01.641Z,57.94
2024-05-09T22:24:03.771Z,57.80
2024-05-09T22:28:06.216Z,58.71
2024-05-09T22:32:08.532Z,59.85
2024-05-09T22:36:10.445Z,58.93
2024-05-09T22:40:20.697Z,59.32
2024-05-09T22:44:30.391Z,61.21
2024-05-09T22:48:32.559Z,60.04
2024-05-09T22:52:34.552Z,59.68
2024-05-09T22:56:36.691Z,60.55
2024-05-09T23:00:38.962Z,60.59
2024-05-09T23:04:41.306Z,59.71
2024-05-09T23:08:43.132Z,59.96
2024-05-09T23:12:45.085Z,59.65
2024-05-09T23:16:47.081Z,60.18
2024-05-09T23:20:48.966Z,60.46
2024-05-09T23:24:50.729Z,59.56
2024-05-09T23:28:52.664Z,60.16
2024-05-09T23:32:55.015Z,61.20
2024-05-09T23:36:57.219Z,61.43
2024-05-09T23:40:59.306Z,61.65
2024-05-09T23:45:01.246Z,62.31
2024-05-09T23:49:03.342Z,62.11
2024-05-09T23:53:07.249Z,62.65
2024-05-09T23:57:10.320Z,62.89
